Time;durP1;ratioP1;P1;durP2;ratioP2;P2;SDS_P1;SDS_P2;PMS_P1;PMS_P2;Temp;Humidity;BMP_temperature;BMP_pressure;BME280_temperature;BME280_humidity;BME280_pressure;Samples;Min_cycle;Max_cycle;Signal;HPM_P1;HPM_P2
2022/02/17 00:02:17;;;;;;;0.30;0.10;;;;;;;;;;5027656;28;20044;-71
2022/02/17 00:04:43;;;;;;;0.00;0.00;;;;;;;;;;5011621;28;20472;-71
2022/02/17 00:07:09;;;;;;;0.40;0.10;;;;;;;;;;5027627;28;20037;-71
2022/02/17 00:09:35;;;;;;;0.30;0.10;;;;;;;;;;5012645;28;20033;-71
2022/02/17 00:12:01;;;;;;;0.20;0.05;;;;;;;;;;5012171;28;20057;-71
2022/02/17 00:14:27;;;;;;;0.10;0.10;;;;;;;;;;5011456;28;20037;-71
2022/02/17 00:16:53;;;;;;;0.47;0.00;;;;;;;;;;5012650;28;20030;-72
2022/02/17 00:19:20;;;;;;;0.93;0.10;;;;;;;;;;5027676;28;20103;-71
2022/02/17 00:21:47;;;;;;;0.00;0.00;;;;;;;;;;5012313;28;20030;-71
2022/02/17 00:24:14;;;;;;;0.10;0.10;;;;;;;;;;5026439;28;20392;-71
2022/02/17 00:26:40;;;;;;;0.28;0.00;;;;;;;;;;5012332;28;20050;-71
2022/02/17 00:29:06;;;;;;;0.65;0.10;;;;;;;;;;5027738;28;20106;-71
2022/02/17 00:31:32;;;;;;;0.52;0.08;;;;;;;;;;5030187;28;20436;-71
2022/02/17 00:33:58;;;;;;;0.10;0.10;;;;;;;;;;5012203;28;20030;-71
2022/02/17 00:36:24;;;;;;;0.35;0.00;;;;;;;;;;5012628;28;20109;-71
2022/02/17 00:38:50;;;;;;;1.55;0.20;;;;;;;;;;5011956;28;20034;-71
2022/02/17 00:41:16;;;;;;;0.13;0.10;;;;;;;;;;5012412;28;20037;-71
2022/02/17 00:43:42;;;;;;;0.10;0.10;;;;;;;;;;5011998;28;20041;-72
2022/02/17 00:46:08;;;;;;;0.30;0.10;;;;;;;;;;5012181;28;20029;-71
2022/02/17 00:48:34;;;;;;;0.80;0.52;;;;;;;;;;5011876;28;20026;-70
2022/02/17 00:51:00;;;;;;;0.00;0.00;;;;;;;;;;5011836;28;20026;-70
2022/02/17 00:53:26;;;;;;;0.00;0.00;;;;;;;;;;5011397;28;20037;-70
2022/02/17 00:55:52;;;;;;;0.00;0.00;;;;;;;;;;5012159;28;20032;-71
2022/02/17 00:58:18;;;;;;;0.00;0.00;;;;;;;;;;5012004;28;20168;-71
2022/02/17 01:00:44;;;;;;;0.20;0.00;;;;;;;;;;5011694;28;20022;-71
2022/02/17 01:03:10;;;;;;;0.20;0.20;;;;;;;;;;5011060;28;20033;-71
2022/02/17 01:05:36;;;;;;;0.77;0.00;;;;;;;;;;5027018;28;20120;-71
2022/02/17 01:08:02;;;;;;;0.40;0.00;;;;;;;;;;5012023;28;20097;-71
2022/02/17 01:10:28;;;;;;;0.00;0.00;;;;;;;;;;5013536;28;20026;-71
2022/02/17 01:12:54;;;;;;;3.05;0.00;;;;;;;;;;5015023;28;20030;-71
2022/02/17 01:15:20;;;;;;;0.20;0.05;;;;;;;;;;5031001;28;20502;-71
2022/02/17 01:17:46;;;;;;;0.00;0.00;;;;;;;;;;5015624;28;20033;-71
2022/02/17 01:20:13;;;;;;;0.35;0.00;;;;;;;;;;5015415;28;20018;-71
2022/02/17 01:22:41;;;;;;;0.85;0.10;;;;;;;;;;5030375;28;20056;-71
2022/02/17 01:25:07;;;;;;;0.20;0.10;;;;;;;;;;5014898;28;20026;-71
2022/02/17 01:27:33;;;;;;;0.10;0.08;;;;;;;;;;5015299;28;20119;-71
2022/02/17 01:29:59;;;;;;;0.10;0.00;;;;;;;;;;5015187;28;20026;-71
2022/02/17 01:32:25;;;;;;;2.20;0.10;;;;;;;;;;5015129;28;20032;-71
2022/02/17 01:34:51;;;;;;;0.63;0.10;;;;;;;;;;5014195;28;20025;-70
2022/02/17 01:37:17;;;;;;;0.00;0.00;;;;;;;;;;5015170;28;20488;-71
2022/02/17 01:39:43;;;;;;;0.10;0.10;;;;;;;;;;5015076;28;20033;-71
2022/02/17 01:42:09;;;;;;;0.20;0.10;;;;;;;;;;5014984;28;20030;-71
2022/02/17 01:44:35;;;;;;;2.75;0.10;;;;;;;;;;5014265;28;20387;-72
2022/02/17 01:47:01;;;;;;;0.00;0.00;;;;;;;;;;5014871;28;20033;-72
2022/02/17 01:49:27;;;;;;;1.88;0.10;;;;;;;;;;5014562;28;20026;-72
2022/02/17 01:51:53;;;;;;;0.00;0.00;;;;;;;;;;5014898;28;20029;-72
2022/02/17 01:54:19;;;;;;;0.00;0.00;;;;;;;;;;5014254;28;20510;-72
2022/02/17 01:56:46;;;;;;;0.10;0.10;;;;;;;;;;5014833;28;20036;-71
2022/02/17 01:59:13;;;;;;;0.52;0.00;;;;;;;;;;5012998;28;20026;-69
2022/02/17 02:01:39;;;;;;;0.08;0.00;;;;;;;;;;5014502;28;20088;-72
2022/02/17 02:04:05;;;;;;;1.55;0.00;;;;;;;;;;5013796;28;20579;-71
2022/02/17 02:06:31;;;;;;;0.00;0.00;;;;;;;;;;5014443;28;20026;-71
2022/02/17 02:08:57;;;;;;;3.00;0.00;;;;;;;;;;5014413;28;20029;-71
2022/02/17 02:11:24;;;;;;;0.35;0.15;;;;;;;;;;5012621;28;20029;-70
2022/02/17 02:13:49;;;;;;;0.10;0.10;;;;;;;;;;5013738;28;20029;-70
2022/02/17 02:16:15;;;;;;;2.25;0.05;;;;;;;;;;5014270;28;20575;-70
2022/02/17 02:18:41;;;;;;;0.10;0.00;;;;;;;;;;5014267;28;20033;-70
2022/02/17 02:21:07;;;;;;;0.00;0.00;;;;;;;;;;5028817;28;20068;-70
2022/02/17 02:23:34;;;;;;;0.00;0.00;;;;;;;;;;5013685;28;20033;-71
2022/02/17 02:26:00;;;;;;;0.00;0.00;;;;;;;;;;5013856;28;20548;-71
2022/02/17 02:28:27;;;;;;;0.00;0.00;;;;;;;;;;5013862;28;20022;-72
2022/02/17 02:30:53;;;;;;;0.00;0.00;;;;;;;;;;5013913;28;20026;-72
2022/02/17 02:33:20;;;;;;;0.25;0.10;;;;;;;;;;5013359;28;20164;-70
2022/02/17 02:35:46;;;;;;;0.10;0.00;;;;;;;;;;5029304;28;20080;-71
2022/02/17 02:38:12;;;;;;;0.38;0.00;;;;;;;;;;5013969;28;20030;-71
2022/02/17 02:40:39;;;;;;;0.65;0.10;;;;;;;;;;5029166;28;20058;-71
2022/02/17 02:43:05;;;;;;;0.05;0.00;;;;;;;;;;5012591;28;20459;-70
2022/02/17 02:45:32;;;;;;;0.00;0.00;;;;;;;;;;5013188;28;20050;-71
2022/02/17 02:47:58;;;;;;;0.08;0.08;;;;;;;;;;5028320;28;20113;-71
2022/02/17 02:50:24;;;;;;;0.00;0.00;;;;;;;;;;5024332;23;20045;-71
2022/02/17 02:52:51;;;;;;;0.00;0.00;;;;;;;;;;5011121;28;20072;-71
2022/02/17 02:55:17;;;;;;;0.88;0.08;;;;;;;;;;5012869;28;20034;-72
2022/02/17 02:57:43;;;;;;;0.10;0.08;;;;;;;;;;5013034;28;20040;-72
2022/02/17 03:00:10;;;;;;;0.00;0.00;;;;;;;;;;5013112;28;20033;-71
2022/02/17 03:02:36;;;;;;;0.00;0.00;;;;;;;;;;5013170;28;20074;-72
2022/02/17 03:05:01;;;;;;;0.00;0.00;;;;;;;;;;5012311;28;20121;-74
2022/02/17 03:07:27;;;;;;;0.00;0.00;;;;;;;;;;5012942;28;20056;-72
2022/02/17 03:09:53;;;;;;;0.10;0.10;;;;;;;;;;5011719;28;20117;-72
2022/02/17 03:12:19;;;;;;;0.20;0.10;;;;;;;;;;5012811;28;20029;-73
2022/02/17 03:14:45;;;;;;;0.50;0.05;;;;;;;;;;5011674;28;20452;-72
2022/02/17 03:17:11;;;;;;;0.10;0.10;;;;;;;;;;5012617;28;20018;-74
2022/02/17 03:19:37;;;;;;;0.57;0.08;;;;;;;;;;5012457;28;20408;-71
2022/02/17 03:22:03;;;;;;;0.00;0.00;;;;;;;;;;5012467;28;20461;-71
2022/02/17 03:24:29;;;;;;;1.35;0.20;;;;;;;;;;5011616;28;20033;-69
2022/02/17 03:26:56;;;;;;;2.33;0.60;;;;;;;;;;5012748;28;20022;-72
2022/02/17 03:29:22;;;;;;;1.40;0.55;;;;;;;;;;5012849;28;20038;-70
2022/02/17 03:31:47;;;;;;;2.15;0.20;;;;;;;;;;5012459;28;20487;-71
2022/02/17 03:34:13;;;;;;;1.33;0.20;;;;;;;;;;5010921;28;20026;-72
2022/02/17 03:36:39;;;;;;;0.60;0.28;;;;;;;;;;5012065;28;20033;-70
2022/02/17 03:39:05;;;;;;;0.20;0.20;;;;;;;;;;5012205;28;20033;-72
2022/02/17 03:41:31;;;;;;;1.48;0.40;;;;;;;;;;5012181;28;20030;-71
2022/02/17 03:43:57;;;;;;;4.40;0.22;;;;;;;;;;5011239;28;20026;-72
2022/02/17 03:46:24;;;;;;;2.17;0.40;;;;;;;;;;5012497;28;20101;-71
2022/02/17 03:48:49;;;;;;;1.67;0.25;;;;;;;;;;5012621;28;20014;-72
2022/02/17 03:51:15;;;;;;;1.00;0.20;;;;;;;;;;5012036;28;20092;-72
2022/02/17 03:53:41;;;;;;;3.35;0.68;;;;;;;;;;5011690;28;20025;-71
2022/02/17 03:56:07;;;;;;;0.60;0.30;;;;;;;;;;5012366;28;20069;-72
2022/02/17 04:01:18;;;;;;;1.25;0.68;;;;;;;;;;5011743;28;20454;-71
2022/02/17 04:03:44;;;;;;;1.08;0.22;;;;;;;;;;5010807;28;20026;-71
2022/02/17 04:06:10;;;;;;;0.77;0.30;;;;;;;;;;5011794;28;20022;-72
2022/02/17 04:08:36;;;;;;;2.38;0.30;;;;;;;;;;5011840;28;20396;-72
2022/02/17 04:11:03;;;;;;;0.20;0.20;;;;;;;;;;5010787;28;20022;-72
2022/02/17 04:13:30;;;;;;;0.80;0.20;;;;;;;;;;5011065;28;20056;-72
2022/02/17 04:15:56;;;;;;;2.90;1.15;;;;;;;;;;5012757;28;20034;-72
2022/02/17 04:18:22;;;;;;;0.30;0.20;;;;;;;;;;5012255;28;20041;-72
2022/02/17 04:20:48;;;;;;;0.80;0.40;;;;;;;;;;5012190;28;20033;-72
2022/02/17 04:23:14;;;;;;;1.10;0.30;;;;;;;;;;5010038;28;20112;-70
2022/02/17 04:25:40;;;;;;;0.90;0.30;;;;;;;;;;5012151;28;20038;-72
2022/02/17 04:28:06;;;;;;;0.50;0.40;;;;;;;;;;5011984;28;20022;-71
2022/02/17 04:30:32;;;;;;;2.10;0.52;;;;;;;;;;5012367;28;20416;-72
2022/02/17 04:33:02;;;;;;;4.55;1.20;;;;;;;;;;5011465;28;20026;-70
2022/02/17 04:35:28;;;;;;;4.07;1.13;;;;;;;;;;5012026;28;20034;-72
2022/02/17 04:37:54;;;;;;;3.55;0.70;;;;;;;;;;5012392;28;20072;-75
2022/02/17 04:42:17;;;;;;;1.75;0.65;;;;;;;;;;5012042;28;20022;-72
2022/02/17 04:43:06;;;;;;;2.45;0.80;;;;;;;;;;5011300;28;20069;-73
2022/02/17 04:45:32;;;;;;;2.15;0.60;;;;;;;;;;5015395;28;20369;-76
2022/02/17 04:47:58;;;;;;;3.58;1.08;;;;;;;;;;5015689;28;20480;-73
2022/02/17 04:50:24;;;;;;;2.60;0.90;;;;;;;;;;5014220;28;20034;-73
2022/02/17 04:52:50;;;;;;;2.95;0.68;;;;;;;;;;5015160;28;20026;-72
2022/02/17 04:55:17;;;;;;;3.85;0.85;;;;;;;;;;5015298;28;20033;-71
2022/02/17 04:57:43;;;;;;;2.03;0.68;;;;;;;;;;5015545;28;20045;-71
2022/02/17 05:00:09;;;;;;;2.58;0.65;;;;;;;;;;5015619;28;20377;-73
2022/02/17 05:02:36;;;;;;;4.47;0.70;;;;;;;;;;5014318;28;20030;-72
2022/02/17 05:05:02;;;;;;;2.30;0.40;;;;;;;;;;5014770;28;20040;-71
2022/02/17 05:07:28;;;;;;;4.05;0.60;;;;;;;;;;5015325;28;20030;-72
2022/02/17 05:09:54;;;;;;;0.82;0.30;;;;;;;;;;5015185;28;20022;-72
2022/02/17 05:12:20;;;;;;;3.42;0.50;;;;;;;;;;5015470;28;20026;-72
2022/02/17 05:14:46;;;;;;;5.97;0.80;;;;;;;;;;5014693;28;20088;-72
2022/02/17 05:17:12;;;;;;;1.58;0.63;;;;;;;;;;5014508;28;20026;-73
2022/02/17 05:19:38;;;;;;;2.65;0.65;;;;;;;;;;5015095;28;20105;-73
2022/02/17 05:22:04;;;;;;;5.38;0.40;;;;;;;;;;5015158;28;20558;-73
2022/02/17 05:24:30;;;;;;;3.60;0.98;;;;;;;;;;5014649;28;20072;-74
2022/02/17 05:26:56;;;;;;;2.72;0.40;;;;;;;;;;5015196;28;20018;-74
2022/02/17 05:29:22;;;;;;;2.00;0.60;;;;;;;;;;5014995;28;20480;-73
2022/02/17 05:31:49;;;;;;;2.30;0.50;;;;;;;;;;5015024;28;20443;-71
2022/02/17 05:34:17;;;;;;;1.75;0.73;;;;;;;;;;5014451;28;20053;-71
2022/02/17 05:36:43;;;;;;;1.92;0.40;;;;;;;;;;5014749;28;20026;-73
2022/02/17 05:39:09;;;;;;;1.27;0.25;;;;;;;;;;5013408;28;20486;-73
2022/02/17 05:41:35;;;;;;;1.08;0.40;;;;;;;;;;5014576;28;20034;-73
2022/02/17 05:44:01;;;;;;;1.05;0.38;;;;;;;;;;5014000;28;20034;-73
2022/02/17 05:46:27;;;;;;;1.30;0.30;;;;;;;;;;5014491;28;20032;-71
2022/02/17 05:48:53;;;;;;;3.42;0.50;;;;;;;;;;5014791;28;20013;-72
2022/02/17 05:51:19;;;;;;;2.67;0.50;;;;;;;;;;5014907;28;20109;-74
2022/02/17 05:53:46;;;;;;;0.55;0.40;;;;;;;;;;5014679;28;20030;-74
2022/02/17 05:56:12;;;;;;;3.75;0.52;;;;;;;;;;5014620;28;20064;-73
2022/02/17 05:58:38;;;;;;;1.08;0.50;;;;;;;;;;5014627;28;20029;-73
2022/02/17 06:01:04;;;;;;;1.67;0.55;;;;;;;;;;5013501;28;20559;-72
2022/02/17 06:03:30;;;;;;;1.05;0.50;;;;;;;;;;5013804;28;20044;-74
2022/02/17 06:05:56;;;;;;;1.50;0.52;;;;;;;;;;5014661;28;20052;-76
2022/02/17 06:08:23;;;;;;;1.58;0.30;;;;;;;;;;5014471;28;20018;-73
2022/02/17 06:10:49;;;;;;;2.05;0.60;;;;;;;;;;5015694;28;20049;-72
2022/02/17 06:13:15;;;;;;;5.28;0.70;;;;;;;;;;5014281;28;20427;-72
2022/02/17 06:15:41;;;;;;;7.53;1.33;;;;;;;;;;5013975;28;20087;-71
2022/02/17 06:18:07;;;;;;;2.58;1.00;;;;;;;;;;5015174;28;20384;-73
2022/02/17 06:20:33;;;;;;;5.03;1.00;;;;;;;;;;5014464;28;20061;-73
2022/02/17 06:22:59;;;;;;;2.97;1.15;;;;;;;;;;5014071;28;20033;-75
2022/02/17 06:25:26;;;;;;;5.03;0.80;;;;;;;;;;5014604;28;20026;-72
2022/02/17 06:27:52;;;;;;;3.40;0.80;;;;;;;;;;5014978;28;20029;-72
2022/02/17 06:30:18;;;;;;;5.68;1.30;;;;;;;;;;5015189;28;20100;-73
2022/02/17 06:32:46;;;;;;;1.63;0.80;;;;;;;;;;5014496;28;20110;-71
2022/02/17 06:35:12;;;;;;;3.30;1.13;;;;;;;;;;5015894;28;20121;-73
2022/02/17 06:37:38;;;;;;;5.07;0.90;;;;;;;;;;5016793;28;20054;-72
2022/02/17 06:40:04;;;;;;;2.95;0.90;;;;;;;;;;5016149;28;20105;-74
2022/02/17 06:42:30;;;;;;;3.22;0.60;;;;;;;;;;5016064;28;20033;-72
2022/02/17 06:44:56;;;;;;;3.67;0.98;;;;;;;;;;5014308;28;20040;-72
2022/02/17 06:47:22;;;;;;;5.40;1.17;;;;;;;;;;5015254;28;20022;-71
2022/02/17 06:49:48;;;;;;;7.95;1.08;;;;;;;;;;5013720;28;20030;-73
2022/02/17 06:52:14;;;;;;;3.42;1.02;;;;;;;;;;5014235;28;20021;-73
2022/02/17 06:54:42;;;;;;;8.95;1.27;;;;;;;;;;5013526;28;20036;-72
2022/02/17 06:57:08;;;;;;;10.20;1.27;;;;;;;;;;5014005;28;20123;-72
2022/02/17 06:59:34;;;;;;;8.38;1.63;;;;;;;;;;5013668;28;20297;-72
2022/02/17 07:02:00;;;;;;;10.68;1.48;;;;;;;;;;5013686;28;20072;-72
2022/02/17 07:04:26;;;;;;;6.35;1.50;;;;;;;;;;5012572;28;20041;-73
2022/02/17 07:06:52;;;;;;;5.18;1.40;;;;;;;;;;5013397;28;20472;-74
2022/02/17 07:09:18;;;;;;;5.00;1.13;;;;;;;;;;5013083;28;20485;-72
2022/02/17 07:11:44;;;;;;;10.20;1.77;;;;;;;;;;5011873;28;20026;-72
2022/02/17 07:14:10;;;;;;;8.63;1.23;;;;;;;;;;5012441;28;20025;-69
2022/02/17 07:16:36;;;;;;;6.70;1.40;;;;;;;;;;5012800;28;20477;-74
2022/02/17 07:19:02;;;;;;;11.55;2.03;;;;;;;;;;5012922;28;20040;-75
2022/02/17 07:21:28;;;;;;;11.48;1.77;;;;;;;;;;5012966;28;20029;-75
2022/02/17 07:23:54;;;;;;;8.35;1.45;;;;;;;;;;5012102;28;20819;-71
2022/02/17 07:26:20;;;;;;;4.65;1.17;;;;;;;;;;5012332;28;20030;-72
2022/02/17 07:28:46;;;;;;;3.90;1.02;;;;;;;;;;5012784;28;20080;-72
2022/02/17 07:31:13;;;;;;;5.03;1.00;;;;;;;;;;5011377;28;20026;-71
2022/02/17 07:33:39;;;;;;;3.40;0.57;;;;;;;;;;5012140;28;20502;-73
2022/02/17 07:36:07;;;;;;;4.43;0.68;;;;;;;;;;5011350;28;20061;-75
2022/02/17 07:38:33;;;;;;;5.57;0.90;;;;;;;;;;5012727;28;20026;-75
2022/02/17 07:40:59;;;;;;;4.25;1.30;;;;;;;;;;5012559;28;20026;-73
2022/02/17 07:43:25;;;;;;;4.95;0.80;;;;;;;;;;5011974;28;20395;-75
2022/02/17 07:45:51;;;;;;;5.85;1.17;;;;;;;;;;5012710;28;20029;-75
2022/02/17 07:48:18;;;;;;;4.20;0.90;;;;;;;;;;5011455;28;20126;-72
2022/02/17 07:50:44;;;;;;;2.88;0.57;;;;;;;;;;5012777;28;20068;-73
2022/02/17 07:53:10;;;;;;;5.63;1.13;;;;;;;;;;5011990;28;20045;-73
2022/02/17 07:55:36;;;;;;;4.05;0.90;;;;;;;;;;5012647;28;20105;-75
2022/02/17 07:58:05;;;;;;;2.97;0.73;;;;;;;;;;5012635;28;20118;-74
2022/02/17 08:00:31;;;;;;;3.42;0.73;;;;;;;;;;5012855;28;20377;-72
2022/02/17 08:02:57;;;;;;;8.10;0.93;;;;;;;;;;5011876;28;20072;-71
2022/02/17 08:05:23;;;;;;;4.25;1.05;;;;;;;;;;5012139;28;20034;-71
2022/02/17 08:07:49;;;;;;;3.95;0.93;;;;;;;;;;5012299;28;20033;-68
2022/02/17 08:10:15;;;;;;;4.88;0.90;;;;;;;;;;5011603;28;20041;-71
2022/02/17 08:12:43;;;;;;;3.72;1.00;;;;;;;;;;5011890;28;20041;-71
2022/02/17 08:15:09;;;;;;;8.00;1.23;;;;;;;;;;5009686;28;20109;-72
2022/02/17 08:17:36;;;;;;;3.65;0.90;;;;;;;;;;5012198;28;20022;-70
2022/02/17 08:20:02;;;;;;;2.53;1.10;;;;;;;;;;5011955;28;20373;-71
2022/02/17 08:22:28;;;;;;;4.15;0.98;;;;;;;;;;5011602;28;20036;-69
2022/02/17 08:24:54;;;;;;;1.80;0.75;;;;;;;;;;5012600;28;20030;-72
2022/02/17 08:27:20;;;;;;;4.30;1.23;;;;;;;;;;5012294;28;20030;-71
2022/02/17 08:29:46;;;;;;;6.97;1.42;;;;;;;;;;5012080;28;20365;-72
2022/02/17 08:32:12;;;;;;;4.60;1.27;;;;;;;;;;5012303;28;20030;-71
2022/02/17 08:34:38;;;;;;;6.68;1.10;;;;;;;;;;5011529;28;20032;-72
2022/02/17 08:37:04;;;;;;;4.32;0.90;;;;;;;;;;5012280;28;20057;-72
2022/02/17 08:39:30;;;;;;;4.20;1.13;;;;;;;;;;5012534;28;20029;-71
2022/02/17 08:41:56;;;;;;;5.93;1.05;;;;;;;;;;5010769;28;20026;-73
2022/02/17 08:44:22;;;;;;;4.88;1.25;;;;;;;;;;5011383;28;20034;-71
2022/02/17 08:46:48;;;;;;;6.68;1.30;;;;;;;;;;5012439;28;20021;-72
2022/02/17 08:49:14;;;;;;;4.32;1.27;;;;;;;;;;5011839;28;20026;-72
2022/02/17 08:51:40;;;;;;;2.13;0.85;;;;;;;;;;5034426;23;20057;-73
2022/02/17 08:54:07;;;;;;;6.53;0.98;;;;;;;;;;5011028;28;20026;-72
2022/02/17 08:56:33;;;;;;;5.30;1.40;;;;;;;;;;5011586;28;20056;-73
2022/02/17 08:59:00;;;;;;;3.03;0.90;;;;;;;;;;5011666;28;20026;-72
2022/02/17 09:01:26;;;;;;;7.07;1.45;;;;;;;;;;5011542;28;20018;-72
2022/02/17 09:03:52;;;;;;;8.38;1.63;;;;;;;;;;5010887;28;20033;-73
2022/02/17 09:06:18;;;;;;;5.40;1.58;;;;;;;;;;5011574;28;20079;-72
2022/02/17 09:08:44;;;;;;;4.70;1.08;;;;;;;;;;5011582;28;20029;-74
2022/02/17 09:11:12;;;;;;;4.35;1.60;;;;;;;;;;5011393;28;20025;-72
2022/02/17 09:13:38;;;;;;;5.15;1.50;;;;;;;;;;5011073;28;20028;-74
2022/02/17 09:16:04;;;;;;;7.65;1.73;;;;;;;;;;5011744;28;20117;-73
2022/02/17 09:18:31;;;;;;;5.78;1.45;;;;;;;;;;5011521;28;20081;-72
2022/02/17 09:20:57;;;;;;;4.60;1.48;;;;;;;;;;5010697;28;20084;-72
2022/02/17 09:23:23;;;;;;;5.57;1.00;;;;;;;;;;5011055;28;20029;-73
2022/02/17 09:25:49;;;;;;;2.63;1.20;;;;;;;;;;5012133;28;20018;-73
2022/02/17 09:28:15;;;;;;;6.80;1.45;;;;;;;;;;5011795;28;20497;-73
2022/02/17 09:30:43;;;;;;;7.68;1.30;;;;;;;;;;5012244;28;20037;-72
2022/02/17 09:33:10;;;;;;;2.50;0.90;;;;;;;;;;5014166;28;20018;-72
2022/02/17 09:35:36;;;;;;;4.10;1.00;;;;;;;;;;5015492;28;20030;-73
2022/02/17 09:38:01;;;;;;;6.28;1.15;;;;;;;;;;5015086;28;20088;-72
2022/02/17 09:40:27;;;;;;;2.60;1.00;;;;;;;;;;5015170;28;20093;-73
2022/02/17 09:42:53;;;;;;;7.70;1.15;;;;;;;;;;5014071;28;20464;-71
2022/02/17 09:45:20;;;;;;;6.43;1.02;;;;;;;;;;5014708;28;20072;-71
2022/02/17 09:47:46;;;;;;;5.22;1.20;;;;;;;;;;5015021;28;20022;-74
2022/02/17 09:50:14;;;;;;;5.72;1.20;;;;;;;;;;5015060;28;20037;-73
2022/02/17 09:52:42;;;;;;;5.18;0.82;;;;;;;;;;5014600;28;20044;-71
2022/02/17 09:55:12;;;;;;;4.25;0.88;;;;;;;;;;5014325;28;20101;-73
2022/02/17 09:57:38;;;;;;;3.13;0.95;;;;;;;;;;5014715;28;20508;-72
2022/02/17 10:00:08;;;;;;;6.07;1.38;;;;;;;;;;5014528;28;20026;-72
2022/02/17 10:02:35;;;;;;;7.83;1.23;;;;;;;;;;5013327;28;20026;-72
2022/02/17 10:05:03;;;;;;;7.30;1.58;;;;;;;;;;5012376;28;20049;-72
2022/02/17 10:07:47;;;;;;;2.85;1.20;;;;;;;;;;5014307;28;20026;-72
2022/02/17 10:10:14;;;;;;;5.43;1.10;;;;;;;;;;5012863;28;20018;-73
2022/02/17 10:12:58;;;;;;;5.00;1.40;;;;;;;;;;5014240;28;20018;-72
2022/02/17 10:15:27;;;;;;;4.47;1.27;;;;;;;;;;5014333;28;20023;-73
2022/02/17 10:18:21;;;;;;;6.88;1.27;;;;;;;;;;5014049;28;20030;-72
2022/02/17 10:20:52;;;;;;;4.30;0.98;;;;;;;;;;5010961;28;20109;-73
2022/02/17 10:23:19;;;;;;;10.02;1.42;;;;;;;;;;5013323;28;20030;-73
2022/02/17 10:26:05;;;;;;;3.47;1.25;;;;;;;;;;5014004;28;20032;-73
2022/02/17 10:28:34;;;;;;;3.58;1.20;;;;;;;;;;5013647;28;20030;-71
2022/02/17 10:31:01;;;;;;;8.77;1.45;;;;;;;;;;5013941;28;20029;-74
2022/02/17 10:33:43;;;;;;;4.55;0.98;;;;;;;;;;5013218;28;20049;-73
2022/02/17 10:36:09;;;;;;;3.45;1.27;;;;;;;;;;5013804;28;20029;-72
2022/02/17 10:38:35;;;;;;;3.03;0.77;;;;;;;;;;5012249;28;20459;-73
2022/02/17 10:41:01;;;;;;;5.00;0.98;;;;;;;;;;5013721;28;20030;-73
2022/02/17 10:43:28;;;;;;;3.10;1.00;;;;;;;;;;5012731;28;20373;-73
2022/02/17 10:45:55;;;;;;;3.75;1.15;;;;;;;;;;5012286;28;20022;-73
2022/02/17 10:48:28;;;;;;;2.10;1.00;;;;;;;;;;5013505;28;20021;-74
2022/02/17 10:51:08;;;;;;;2.75;0.75;;;;;;;;;;5013413;28;20117;-73
2022/02/17 10:53:35;;;;;;;8.23;1.73;;;;;;;;;;5012744;28;20399;-74
2022/02/17 10:56:04;;;;;;;4.93;0.93;;;;;;;;;;5013555;28;20499;-72
2022/02/17 10:58:31;;;;;;;4.45;1.30;;;;;;;;;;5012137;28;20038;-74
2022/02/17 11:00:58;;;;;;;8.35;1.27;;;;;;;;;;5013298;28;20084;-73
2022/02/17 11:03:32;;;;;;;5.07;1.45;;;;;;;;;;5012821;28;20045;-74
2022/02/17 11:05:58;;;;;;;4.03;0.93;;;;;;;;;;5012158;28;20048;-74
2022/02/17 11:08:24;;;;;;;9.27;1.38;;;;;;;;;;5013641;28;20101;-73
2022/02/17 11:10:50;;;;;;;3.92;0.80;;;;;;;;;;5013444;28;20534;-70
2022/02/17 11:13:19;;;;;;;4.68;1.08;;;;;;;;;;5012589;28;20030;-72
2022/02/17 11:15:46;;;;;;;4.72;1.25;;;;;;;;;;5013154;28;20022;-73
2022/02/17 11:18:12;;;;;;;4.75;1.67;;;;;;;;;;5013646;28;20034;-72
2022/02/17 11:20:39;;;;;;;6.47;1.30;;;;;;;;;;5011356;28;20028;-74
2022/02/17 11:23:10;;;;;;;5.32;1.13;;;;;;;;;;5012429;28;20021;-72
2022/02/17 11:25:37;;;;;;;7.20;1.00;;;;;;;;;;5013199;28;20029;-72
2022/02/17 11:28:05;;;;;;;5.15;1.38;;;;;;;;;;5012758;28;20026;-73
2022/02/17 11:30:32;;;;;;;4.20;1.17;;;;;;;;;;5013195;28;20060;-73
2022/02/17 11:33:16;;;;;;;3.50;0.82;;;;;;;;;;5012436;28;20026;-73
2022/02/17 11:35:43;;;;;;;7.18;1.05;;;;;;;;;;5011430;28;20076;-73
2022/02/17 11:38:34;;;;;;;3.25;0.80;;;;;;;;;;5013108;28;20025;-72
2022/02/17 11:41:34;;;;;;;2.25;0.90;;;;;;;;;;5011322;28;20412;-73
2022/02/17 11:44:18;;;;;;;4.90;1.00;;;;;;;;;;4979568;28;20034;-73
2022/02/17 11:46:44;;;;;;;4.18;1.02;;;;;;;;;;5012908;28;20042;-73
2022/02/17 11:49:36;;;;;;;5.93;1.75;;;;;;;;;;5011221;28;20037;-74
2022/02/17 11:52:15;;;;;;;12.82;1.63;;;;;;;;;;5004169;28;20058;-73
2022/02/17 11:54:41;;;;;;;7.20;2.42;;;;;;;;;;5011303;28;20029;-73
2022/02/17 11:57:31;;;;;;;4.18;1.20;;;;;;;;;;5011001;28;20111;-74
2022/02/17 12:00:21;;;;;;;5.93;1.15;;;;;;;;;;5011169;28;20030;-74
2022/02/17 12:02:46;;;;;;;5.10;1.55;;;;;;;;;;5006652;28;20045;-71
2022/02/17 12:05:16;;;;;;;7.95;1.08;;;;;;;;;;5011865;28;20033;-73
2022/02/17 12:07:42;;;;;;;5.93;1.52;;;;;;;;;;5012441;28;20392;-72
2022/02/17 12:10:28;;;;;;;5.47;1.35;;;;;;;;;;5012370;28;20014;-73
2022/02/17 12:12:54;;;;;;;8.00;1.70;;;;;;;;;;5012574;28;20037;-72
2022/02/17 12:15:20;;;;;;;4.00;1.25;;;;;;;;;;5012280;28;20496;-73
2022/02/17 12:17:47;;;;;;;5.57;1.45;;;;;;;;;;5012399;28;20033;-73
2022/02/17 12:20:13;;;;;;;5.57;1.13;;;;;;;;;;5009839;28;20030;-71
2022/02/17 12:22:58;;;;;;;2.90;0.93;;;;;;;;;;5011744;28;20459;-71
2022/02/17 12:25:25;;;;;;;8.50;1.38;;;;;;;;;;5010756;28;20431;-73
2022/02/17 12:28:01;;;;;;;5.90;1.55;;;;;;;;;;5011817;28;20026;-73
2022/02/17 12:30:32;;;;;;;5.50;1.55;;;;;;;;;;5011952;28;20053;-73
2022/02/17 12:33:11;;;;;;;7.00;1.83;;;;;;;;;;5011429;28;20803;-75
2022/02/17 12:35:37;;;;;;;7.00;1.30;;;;;;;;;;5012113;28;20025;-73
2022/02/17 12:38:08;;;;;;;6.82;1.67;;;;;;;;;;5011974;28;20052;-73
2022/02/17 12:40:34;;;;;;;5.15;1.85;;;;;;;;;;5011810;28;20492;-74
2022/02/17 12:43:01;;;;;;;5.32;1.75;;;;;;;;;;5011165;28;20025;-73
2022/02/17 12:45:55;;;;;;;10.20;1.48;;;;;;;;;;5011853;28;20026;-72
2022/02/17 12:48:21;;;;;;;6.38;1.65;;;;;;;;;;5009936;28;20064;-74
2022/02/17 12:50:48;;;;;;;5.35;1.45;;;;;;;;;;5011654;28;20084;-74
2022/02/17 12:53:14;;;;;;;7.40;1.17;;;;;;;;;;5011271;28;20033;-74
2022/02/17 12:55:59;;;;;;;8.50;1.55;;;;;;;;;;5011652;28;20018;-73
2022/02/17 12:58:32;;;;;;;3.95;0.93;;;;;;;;;;5011713;28;20032;-73
2022/02/17 13:00:59;;;;;;;6.18;1.50;;;;;;;;;;5010290;28;20022;-74
2022/02/17 13:03:31;;;;;;;9.75;1.40;;;;;;;;;;5010858;28;20113;-74
2022/02/17 13:08:46;;;;;;;6.32;1.50;;;;;;;;;;5016058;28;20045;-73
2022/02/17 13:11:12;;;;;;;6.95;1.90;;;;;;;;;;5015294;28;20022;-74
2022/02/17 13:13:39;;;;;;;9.05;1.60;;;;;;;;;;5014628;28;20102;-73
2022/02/17 13:16:05;;;;;;;4.72;1.20;;;;;;;;;;5015034;28;20030;-73
2022/02/17 13:18:31;;;;;;;5.18;1.10;;;;;;;;;;5015054;28;20022;-74
2022/02/17 13:21:10;;;;;;;6.00;1.02;;;;;;;;;;5013415;28;20127;-74
2022/02/17 13:23:36;;;;;;;10.77;1.73;;;;;;;;;;5014358;28;20112;-73
2022/02/17 13:26:02;;;;;;;5.50;1.23;;;;;;;;;;5015059;28;20018;-74
2022/02/17 13:28:28;;;;;;;6.88;1.00;;;;;;;;;;5014757;28;20475;-73
2022/02/17 13:30:54;;;;;;;5.85;2.15;;;;;;;;;;5014766;28;20117;-73
2022/02/17 13:33:27;;;;;;;5.30;1.10;;;;;;;;;;5014398;28;20037;-72
2022/02/17 13:35:56;;;;;;;5.95;1.30;;;;;;;;;;5014893;28;20014;-73
2022/02/17 13:38:30;;;;;;;3.97;1.10;;;;;;;;;;5015037;28;20171;-74
2022/02/17 13:40:58;;;;;;;7.93;1.20;;;;;;;;;;5013399;28;20029;-73
2022/02/17 13:43:24;;;;;;;4.07;0.88;;;;;;;;;;5014118;28;20507;-73
2022/02/17 13:45:59;;;;;;;3.45;1.27;;;;;;;;;;5013592;28;20014;-73
2022/02/17 13:48:35;;;;;;;7.03;1.30;;;;;;;;;;5014730;28;20435;-74
2022/02/17 13:51:02;;;;;;;3.90;1.15;;;;;;;;;;5014519;28;20061;-74
2022/02/17 13:53:32;;;;;;;10.02;2.00;;;;;;;;;;5013853;28;20476;-73
2022/02/17 13:55:58;;;;;;;5.22;1.27;;;;;;;;;;5013228;28;20026;-73
2022/02/17 13:58:25;;;;;;;5.78;1.00;;;;;;;;;;5014698;28;20054;-74
2022/02/17 14:00:53;;;;;;;5.90;1.23;;;;;;;;;;5014116;28;20101;-72
2022/02/17 14:03:23;;;;;;;4.63;1.15;;;;;;;;;;5013425;28;20026;-72
2022/02/17 14:05:49;;;;;;;5.57;0.60;;;;;;;;;;5013313;28;20163;-73
2022/02/17 14:08:15;;;;;;;4.80;1.00;;;;;;;;;;5014225;28;20440;-72
2022/02/17 14:10:41;;;;;;;6.55;1.50;;;;;;;;;;5014343;28;20030;-73
2022/02/17 14:13:07;;;;;;;4.25;1.10;;;;;;;;;;5013698;28;20502;-72
2022/02/17 14:15:34;;;;;;;3.15;0.95;;;;;;;;;;5014157;28;20072;-73
2022/02/17 14:18:00;;;;;;;5.63;1.02;;;;;;;;;;5013370;28;20058;-73
2022/02/17 14:20:26;;;;;;;4.68;1.13;;;;;;;;;;5014066;28;20029;-73
2022/02/17 14:22:52;;;;;;;8.65;1.20;;;;;;;;;;5013748;28;20464;-72
2022/02/17 14:25:18;;;;;;;4.25;1.40;;;;;;;;;;5014283;28;20030;-73
2022/02/17 14:27:45;;;;;;;4.40;1.30;;;;;;;;;;5014018;28;20033;-74
2022/02/17 14:30:11;;;;;;;6.50;1.73;;;;;;;;;;5013960;28;20061;-73
2022/02/17 14:32:37;;;;;;;3.72;0.88;;;;;;;;;;5012720;28;20314;-74
2022/02/17 14:35:13;;;;;;;6.47;1.38;;;;;;;;;;5011921;28;20511;-72
2022/02/17 14:37:41;;;;;;;5.03;1.75;;;;;;;;;;5015268;28;20079;-72
2022/02/17 14:40:08;;;;;;;5.32;1.17;;;;;;;;;;5017194;28;20091;-73
2022/02/17 14:42:34;;;;;;;3.67;1.10;;;;;;;;;;5019042;28;20135;-74
2022/02/17 14:45:00;;;;;;;3.60;0.68;;;;;;;;;;5017889;28;20112;-73
2022/02/17 14:47:26;;;;;;;3.33;1.45;;;;;;;;;;5017119;28;20491;-73
2022/02/17 14:49:53;;;;;;;1.60;0.70;;;;;;;;;;5015390;28;20026;-73
2022/02/17 14:52:19;;;;;;;10.30;1.00;;;;;;;;;;5027618;22;20046;-71